sensor_id;sensor_type;location;lat;lon;timestamp;P1;durP1;ratioP1;P2;durP2;ratioP2
21202;SDS011;10759;51.982;9.232;2023-06-22T00:00:31;14.88;;;13.77;;
21202;SDS011;10759;51.982;9.232;2023-06-22T00:02:59;14.02;;;13.07;;
21202;SDS011;10759;51.982;9.232;2023-06-22T00:05:27;13.75;;;12.85;;
21202;SDS011;10759;51.982;9.232;2023-06-22T00:07:55;14.10;;;13.05;;
21202;SDS011;10759;51.982;9.232;2023-06-22T00:10:23;14.25;;;12.85;;
21202;SDS011;10759;51.982;9.232;2023-06-22T00:12:52;15.23;;;14.13;;
21202;SDS011;10759;51.982;9.232;2023-06-22T00:15:21;12.82;;;11.93;;
21202;SDS011;10759;51.982;9.232;2023-06-22T00:17:49;14.30;;;13.30;;
21202;SDS011;10759;51.982;9.232;2023-06-22T00:20:17;12.93;;;11.98;;
21202;SDS011;10759;51.982;9.232;2023-06-22T00:22:45;13.70;;;12.60;;
21202;SDS011;10759;51.982;9.232;2023-06-22T00:25:14;13.73;;;12.73;;
21202;SDS011;10759;51.982;9.232;2023-06-22T00:27:42;14.63;;;13.73;;
21202;SDS011;10759;51.982;9.232;2023-06-22T00:30:12;14.13;;;12.93;;
21202;SDS011;10759;51.982;9.232;2023-06-22T00:32:41;13.65;;;12.75;;
21202;SDS011;10759;51.982;9.232;2023-06-22T00:35:09;15.25;;;14.00;;
21202;SDS011;10759;51.982;9.232;2023-06-22T00:37:38;13.70;;;12.60;;
21202;SDS011;10759;51.982;9.232;2023-06-22T00:40:08;15.13;;;14.05;;
21202;SDS011;10759;51.982;9.232;2023-06-22T00:42:38;15.05;;;13.85;;
21202;SDS011;10759;51.982;9.232;2023-06-22T00:45:07;14.93;;;13.63;;
21202;SDS011;10759;51.982;9.232;2023-06-22T00:47:37;15.57;;;14.18;;
21202;SDS011;10759;51.982;9.232;2023-06-22T00:50:06;15.10;;;14.00;;
21202;SDS011;10759;51.982;9.232;2023-06-22T00:52:36;15.40;;;13.93;;
21202;SDS011;10759;51.982;9.232;2023-06-22T00:55:09;14.82;;;13.73;;
21202;SDS011;10759;51.982;9.232;2023-06-22T00:57:37;15.85;;;14.70;;
21202;SDS011;10759;51.982;9.232;2023-06-22T01:00:06;16.33;;;15.02;;
21202;SDS011;10759;51.982;9.232;2023-06-22T01:02:39;15.13;;;14.05;;
21202;SDS011;10759;51.982;9.232;2023-06-22T01:05:08;15.00;;;13.82;;
21202;SDS011;10759;51.982;9.232;2023-06-22T01:07:38;14.93;;;13.77;;
21202;SDS011;10759;51.982;9.232;2023-06-22T01:10:11;15.90;;;14.60;;
21202;SDS011;10759;51.982;9.232;2023-06-22T01:12:44;16.83;;;15.32;;
21202;SDS011;10759;51.982;9.232;2023-06-22T01:15:18;15.95;;;14.80;;
21202;SDS011;10759;51.982;9.232;2023-06-22T01:17:54;16.35;;;15.15;;
21202;SDS011;10759;51.982;9.232;2023-06-22T01:20:25;15.80;;;14.52;;
21202;SDS011;10759;51.982;9.232;2023-06-22T01:23:01;17.55;;;16.35;;
21202;SDS011;10759;51.982;9.232;2023-06-22T01:25:36;16.05;;;14.70;;
21202;SDS011;10759;51.982;9.232;2023-06-22T01:28:19;16.20;;;14.82;;
21202;SDS011;10759;51.982;9.232;2023-06-22T01:30:54;15.20;;;14.00;;
21202;SDS011;10759;51.982;9.232;2023-06-22T01:33:33;15.13;;;14.05;;
21202;SDS011;10759;51.982;9.232;2023-06-22T01:36:02;15.40;;;14.23;;
21202;SDS011;10759;51.982;9.232;2023-06-22T01:38:32;15.65;;;14.20;;
21202;SDS011;10759;51.982;9.232;2023-06-22T01:43:32;15.13;;;14.02;;
21202;SDS011;10759;51.982;9.232;2023-06-22T01:46:02;17.60;;;16.40;;
21202;SDS011;10759;51.982;9.232;2023-06-22T01:48:31;16.92;;;15.60;;
21202;SDS011;10759;51.982;9.232;2023-06-22T01:51:00;17.40;;;15.98;;
21202;SDS011;10759;51.982;9.232;2023-06-22T01:53:29;16.23;;;14.65;;
21202;SDS011;10759;51.982;9.232;2023-06-22T01:55:58;16.55;;;15.05;;
21202;SDS011;10759;51.982;9.232;2023-06-22T01:58:28;16.02;;;14.68;;
21202;SDS011;10759;51.982;9.232;2023-06-22T02:00:58;17.55;;;16.08;;
21202;SDS011;10759;51.982;9.232;2023-06-22T02:03:34;15.73;;;14.43;;
21202;SDS011;10759;51.982;9.232;2023-06-22T02:06:06;17.60;;;15.95;;
21202;SDS011;10759;51.982;9.232;2023-06-22T02:08:40;18.83;;;17.27;;
21202;SDS011;10759;51.982;9.232;2023-06-22T02:11:09;19.75;;;17.95;;
21202;SDS011;10759;51.982;9.232;2023-06-22T02:13:39;18.95;;;17.60;;
21202;SDS011;10759;51.982;9.232;2023-06-22T02:16:09;19.95;;;18.25;;
21202;SDS011;10759;51.982;9.232;2023-06-22T02:18:41;20.15;;;18.65;;
21202;SDS011;10759;51.982;9.232;2023-06-22T02:21:13;19.85;;;18.05;;
21202;SDS011;10759;51.982;9.232;2023-06-22T02:23:41;18.80;;;17.27;;
21202;SDS011;10759;51.982;9.232;2023-06-22T02:26:09;19.75;;;18.13;;
21202;SDS011;10759;51.982;9.232;2023-06-22T02:28:37;18.67;;;17.27;;
21202;SDS011;10759;51.982;9.232;2023-06-22T02:31:05;18.73;;;17.17;;
21202;SDS011;10759;51.982;9.232;2023-06-22T02:33:33;17.90;;;16.48;;
21202;SDS011;10759;51.982;9.232;2023-06-22T02:36:03;18.17;;;16.65;;
21202;SDS011;10759;51.982;9.232;2023-06-22T02:38:31;18.60;;;17.00;;
21202;SDS011;10759;51.982;9.232;2023-06-22T02:41:01;19.53;;;18.03;;
21202;SDS011;10759;51.982;9.232;2023-06-22T02:43:29;18.88;;;17.25;;
21202;SDS011;10759;51.982;9.232;2023-06-22T02:45:57;19.25;;;17.77;;
21202;SDS011;10759;51.982;9.232;2023-06-22T02:48:25;17.63;;;16.08;;
21202;SDS011;10759;51.982;9.232;2023-06-22T02:50:53;18.50;;;16.80;;
21202;SDS011;10759;51.982;9.232;2023-06-22T02:53:23;18.13;;;16.65;;
21202;SDS011;10759;51.982;9.232;2023-06-22T02:55:51;17.75;;;16.30;;
21202;SDS011;10759;51.982;9.232;2023-06-22T02:58:19;16.63;;;15.43;;
21202;SDS011;10759;51.982;9.232;2023-06-22T03:00:48;17.92;;;16.58;;
21202;SDS011;10759;51.982;9.232;2023-06-22T03:03:19;18.75;;;17.10;;
21202;SDS011;10759;51.982;9.232;2023-06-22T03:05:48;17.67;;;16.42;;
21202;SDS011;10759;51.982;9.232;2023-06-22T03:08:17;16.98;;;15.52;;
21202;SDS011;10759;51.982;9.232;2023-06-22T03:10:47;17.38;;;16.17;;
21202;SDS011;10759;51.982;9.232;2023-06-22T03:13:15;20.70;;;16.65;;
21202;SDS011;10759;51.982;9.232;2023-06-22T03:15:43;17.02;;;15.85;;
21202;SDS011;10759;51.982;9.232;2023-06-22T03:18:12;18.75;;;17.00;;
21202;SDS011;10759;51.982;9.232;2023-06-22T03:20:42;18.33;;;16.83;;
21202;SDS011;10759;51.982;9.232;2023-06-22T03:23:10;17.88;;;16.30;;
21202;SDS011;10759;51.982;9.232;2023-06-22T03:25:39;17.92;;;16.23;;
21202;SDS011;10759;51.982;9.232;2023-06-22T03:28:08;18.05;;;16.65;;
21202;SDS011;10759;51.982;9.232;2023-06-22T03:30:37;18.90;;;17.27;;
21202;SDS011;10759;51.982;9.232;2023-06-22T03:33:04;18.77;;;17.27;;
21202;SDS011;10759;51.982;9.232;2023-06-22T03:35:33;19.23;;;17.83;;
21202;SDS011;10759;51.982;9.232;2023-06-22T03:38:01;17.98;;;16.60;;
21202;SDS011;10759;51.982;9.232;2023-06-22T03:40:30;17.13;;;15.85;;
21202;SDS011;10759;51.982;9.232;2023-06-22T03:42:59;19.07;;;17.33;;
21202;SDS011;10759;51.982;9.232;2023-06-22T03:45:30;18.85;;;17.10;;
21202;SDS011;10759;51.982;9.232;2023-06-22T03:47:58;19.42;;;17.70;;
21202;SDS011;10759;51.982;9.232;2023-06-22T03:50:26;18.65;;;17.10;;
21202;SDS011;10759;51.982;9.232;2023-06-22T03:52:55;17.95;;;16.55;;
21202;SDS011;10759;51.982;9.232;2023-06-22T03:55:23;17.83;;;16.40;;
21202;SDS011;10759;51.982;9.232;2023-06-22T03:57:51;19.17;;;17.58;;
21202;SDS011;10759;51.982;9.232;2023-06-22T04:00:20;17.40;;;15.93;;
21202;SDS011;10759;51.982;9.232;2023-06-22T04:02:50;19.50;;;17.73;;
21202;SDS011;10759;51.982;9.232;2023-06-22T04:05:18;19.80;;;18.10;;
21202;SDS011;10759;51.982;9.232;2023-06-22T04:07:46;16.42;;;15.13;;
21202;SDS011;10759;51.982;9.232;2023-06-22T04:10:14;17.67;;;16.25;;
21202;SDS011;10759;51.982;9.232;2023-06-22T04:12:43;17.83;;;16.42;;
21202;SDS011;10759;51.982;9.232;2023-06-22T04:15:11;18.25;;;16.85;;
21202;SDS011;10759;51.982;9.232;2023-06-22T04:17:39;17.27;;;16.02;;
21202;SDS011;10759;51.982;9.232;2023-06-22T04:20:09;17.77;;;16.48;;
21202;SDS011;10759;51.982;9.232;2023-06-22T04:25:06;18.00;;;16.70;;
21202;SDS011;10759;51.982;9.232;2023-06-22T04:27:35;17.13;;;15.73;;
21202;SDS011;10759;51.982;9.232;2023-06-22T04:30:07;19.13;;;17.65;;
21202;SDS011;10759;51.982;9.232;2023-06-22T04:32:36;18.27;;;17.08;;
21202;SDS011;10759;51.982;9.232;2023-06-22T04:35:04;19.52;;;17.95;;
21202;SDS011;10759;51.982;9.232;2023-06-22T04:37:34;19.60;;;18.27;;
21202;SDS011;10759;51.982;9.232;2023-06-22T04:40:03;19.30;;;17.83;;
21202;SDS011;10759;51.982;9.232;2023-06-22T04:42:33;19.05;;;17.50;;
21202;SDS011;10759;51.982;9.232;2023-06-22T04:45:02;19.13;;;17.77;;
21202;SDS011;10759;51.982;9.232;2023-06-22T04:47:31;20.27;;;18.55;;
21202;SDS011;10759;51.982;9.232;2023-06-22T04:49:59;19.98;;;18.25;;
21202;SDS011;10759;51.982;9.232;2023-06-22T04:52:28;19.58;;;18.02;;
21202;SDS011;10759;51.982;9.232;2023-06-22T04:54:57;18.73;;;17.25;;
21202;SDS011;10759;51.982;9.232;2023-06-22T04:57:26;20.70;;;19.10;;
21202;SDS011;10759;51.982;9.232;2023-06-22T04:59:59;19.33;;;17.90;;
21202;SDS011;10759;51.982;9.232;2023-06-22T05:02:37;18.98;;;17.23;;
21202;SDS011;10759;51.982;9.232;2023-06-22T05:05:06;19.83;;;17.92;;
21202;SDS011;10759;51.982;9.232;2023-06-22T05:07:35;20.33;;;18.60;;
21202;SDS011;10759;51.982;9.232;2023-06-22T05:10:05;18.83;;;17.48;;
21202;SDS011;10759;51.982;9.232;2023-06-22T05:15:01;21.00;;;19.00;;
21202;SDS011;10759;51.982;9.232;2023-06-22T05:17:29;20.90;;;19.23;;
21202;SDS011;10759;51.982;9.232;2023-06-22T05:19:57;20.98;;;19.35;;
21202;SDS011;10759;51.982;9.232;2023-06-22T05:22:25;20.70;;;19.02;;
21202;SDS011;10759;51.982;9.232;2023-06-22T05:24:53;20.38;;;18.67;;
21202;SDS011;10759;51.982;9.232;2023-06-22T05:27:23;20.48;;;18.77;;
21202;SDS011;10759;51.982;9.232;2023-06-22T05:29:51;23.20;;;21.43;;
21202;SDS011;10759;51.982;9.232;2023-06-22T05:32:19;21.98;;;20.17;;
21202;SDS011;10759;51.982;9.232;2023-06-22T05:34:47;20.55;;;18.85;;
21202;SDS011;10759;51.982;9.232;2023-06-22T05:37:15;20.38;;;18.90;;
21202;SDS011;10759;51.982;9.232;2023-06-22T05:39:43;18.13;;;16.83;;
21202;SDS011;10759;51.982;9.232;2023-06-22T05:42:11;20.40;;;18.80;;
21202;SDS011;10759;51.982;9.232;2023-06-22T05:44:40;20.00;;;18.40;;
21202;SDS011;10759;51.982;9.232;2023-06-22T05:47:08;20.07;;;18.67;;
21202;SDS011;10759;51.982;9.232;2023-06-22T05:49:36;20.75;;;19.08;;
21202;SDS011;10759;51.982;9.232;2023-06-22T05:52:04;20.40;;;18.70;;
21202;SDS011;10759;51.982;9.232;2023-06-22T05:54:32;20.83;;;19.17;;
21202;SDS011;10759;51.982;9.232;2023-06-22T05:57:00;19.30;;;17.75;;
21202;SDS011;10759;51.982;9.232;2023-06-22T05:59:27;18.35;;;16.95;;
21202;SDS011;10759;51.982;9.232;2023-06-22T06:01:57;20.83;;;19.15;;
21202;SDS011;10759;51.982;9.232;2023-06-22T06:04:25;20.87;;;19.17;;
21202;SDS011;10759;51.982;9.232;2023-06-22T06:06:53;20.17;;;18.75;;
21202;SDS011;10759;51.982;9.232;2023-06-22T06:09:21;18.40;;;17.00;;
21202;SDS011;10759;51.982;9.232;2023-06-22T06:11:48;18.70;;;17.17;;
21202;SDS011;10759;51.982;9.232;2023-06-22T06:14:16;18.83;;;17.48;;
21202;SDS011;10759;51.982;9.232;2023-06-22T06:16:44;19.17;;;17.63;;
21202;SDS011;10759;51.982;9.232;2023-06-22T06:19:13;20.58;;;18.70;;
21202;SDS011;10759;51.982;9.232;2023-06-22T06:21:41;19.90;;;18.38;;
21202;SDS011;10759;51.982;9.232;2023-06-22T06:24:10;20.85;;;19.27;;
21202;SDS011;10759;51.982;9.232;2023-06-22T06:26:37;19.23;;;17.83;;
21202;SDS011;10759;51.982;9.232;2023-06-22T06:29:08;18.67;;;17.08;;
21202;SDS011;10759;51.982;9.232;2023-06-22T06:31:36;19.25;;;17.73;;
21202;SDS011;10759;51.982;9.232;2023-06-22T06:34:04;19.92;;;18.58;;
21202;SDS011;10759;51.982;9.232;2023-06-22T06:36:33;19.77;;;18.27;;
21202;SDS011;10759;51.982;9.232;2023-06-22T06:39:01;21.60;;;19.85;;
21202;SDS011;10759;51.982;9.232;2023-06-22T06:41:30;18.25;;;16.85;;
21202;SDS011;10759;51.982;9.232;2023-06-22T06:43:59;19.20;;;17.70;;
21202;SDS011;10759;51.982;9.232;2023-06-22T06:46:27;18.85;;;17.50;;
21202;SDS011;10759;51.982;9.232;2023-06-22T06:48:55;19.50;;;18.08;;
21202;SDS011;10759;51.982;9.232;2023-06-22T06:51:23;19.08;;;17.75;;
21202;SDS011;10759;51.982;9.232;2023-06-22T06:53:53;19.63;;;17.92;;
21202;SDS011;10759;51.982;9.232;2023-06-22T06:56:20;18.90;;;17.48;;
21202;SDS011;10759;51.982;9.232;2023-06-22T06:58:49;19.35;;;17.85;;
21202;SDS011;10759;51.982;9.232;2023-06-22T07:01:18;20.05;;;18.38;;
21202;SDS011;10759;51.982;9.232;2023-06-22T07:03:48;19.45;;;17.95;;
21202;SDS011;10759;51.982;9.232;2023-06-22T07:06:16;18.60;;;17.20;;
21202;SDS011;10759;51.982;9.232;2023-06-22T07:08:44;18.38;;;16.88;;
21202;SDS011;10759;51.982;9.232;2023-06-22T07:11:13;19.58;;;18.08;;
21202;SDS011;10759;51.982;9.232;2023-06-22T07:13:41;19.07;;;17.57;;
21202;SDS011;10759;51.982;9.232;2023-06-22T07:16:09;19.05;;;17.45;;
21202;SDS011;10759;51.982;9.232;2023-06-22T07:18:39;18.48;;;17.17;;
21202;SDS011;10759;51.982;9.232;2023-06-22T07:21:07;17.35;;;15.98;;
21202;SDS011;10759;51.982;9.232;2023-06-22T07:23:35;19.98;;;18.48;;
21202;SDS011;10759;51.982;9.232;2023-06-22T07:26:03;19.33;;;17.92;;
21202;SDS011;10759;51.982;9.232;2023-06-22T07:28:34;18.63;;;17.25;;
21202;SDS011;10759;51.982;9.232;2023-06-22T07:31:04;19.27;;;17.98;;
21202;SDS011;10759;51.982;9.232;2023-06-22T07:33:32;17.95;;;16.65;;
21202;SDS011;10759;51.982;9.232;2023-06-22T07:36:00;21.10;;;19.60;;
21202;SDS011;10759;51.982;9.232;2023-06-22T07:38:29;19.00;;;17.63;;
21202;SDS011;10759;51.982;9.232;2023-06-22T07:40:57;19.83;;;18.08;;
21202;SDS011;10759;51.982;9.232;2023-06-22T07:43:25;19.15;;;17.65;;
21202;SDS011;10759;51.982;9.232;2023-06-22T07:45:54;19.48;;;18.13;;
21202;SDS011;10759;51.982;9.232;2023-06-22T07:48:22;19.55;;;18.02;;
21202;SDS011;10759;51.982;9.232;2023-06-22T07:50:50;19.95;;;18.08;;
21202;SDS011;10759;51.982;9.232;2023-06-22T07:53:20;18.48;;;16.92;;
21202;SDS011;10759;51.982;9.232;2023-06-22T07:55:47;19.15;;;17.75;;
21202;SDS011;10759;51.982;9.232;2023-06-22T07:58:15;18.10;;;16.80;;
21202;SDS011;10759;51.982;9.232;2023-06-22T08:00:45;20.05;;;18.45;;
21202;SDS011;10759;51.982;9.232;2023-06-22T08:03:16;19.63;;;18.33;;
21202;SDS011;10759;51.982;9.232;2023-06-22T08:05:44;20.80;;;19.30;;
21202;SDS011;10759;51.982;9.232;2023-06-22T08:08:12;22.05;;;20.55;;
21202;SDS011;10759;51.982;9.232;2023-06-22T08:10:41;20.00;;;18.60;;
21202;SDS011;10759;51.982;9.232;2023-06-22T08:13:09;20.75;;;18.80;;
21202;SDS011;10759;51.982;9.232;2023-06-22T08:15:37;20.92;;;19.35;;
21202;SDS011;10759;51.982;9.232;2023-06-22T08:18:06;21.60;;;20.02;;
21202;SDS011;10759;51.982;9.232;2023-06-22T08:20:35;21.73;;;20.13;;
21202;SDS011;10759;51.982;9.232;2023-06-22T08:23:03;23.60;;;22.00;;
21202;SDS011;10759;51.982;9.232;2023-06-22T08:25:32;23.75;;;22.05;;
21202;SDS011;10759;51.982;9.232;2023-06-22T08:28:01;23.10;;;21.27;;
21202;SDS011;10759;51.982;9.232;2023-06-22T08:30:29;23.73;;;21.83;;
21202;SDS011;10759;51.982;9.232;2023-06-22T08:32:57;23.70;;;22.10;;
21202;SDS011;10759;51.982;9.232;2023-06-22T08:35:25;24.38;;;22.58;;
21202;SDS011;10759;51.982;9.232;2023-06-22T08:37:55;23.08;;;21.45;;
21202;SDS011;10759;51.982;9.232;2023-06-22T08:40:23;22.73;;;20.95;;
21202;SDS011;10759;51.982;9.232;2023-06-22T08:42:51;22.23;;;20.48;;
21202;SDS011;10759;51.982;9.232;2023-06-22T08:45:19;22.83;;;21.13;;
21202;SDS011;10759;51.982;9.232;2023-06-22T08:47:47;22.73;;;21.02;;
21202;SDS011;10759;51.982;9.232;2023-06-22T08:50:15;24.50;;;22.63;;
21202;SDS011;10759;51.982;9.232;2023-06-22T08:52:42;22.65;;;21.02;;
21202;SDS011;10759;51.982;9.232;2023-06-22T08:55:13;23.13;;;21.53;;
21202;SDS011;10759;51.982;9.232;2023-06-22T08:57:41;23.40;;;21.80;;
21202;SDS011;10759;51.982;9.232;2023-06-22T09:00:10;22.02;;;20.45;;
21202;SDS011;10759;51.982;9.232;2023-06-22T09:02:44;21.13;;;19.55;;
21202;SDS011;10759;51.982;9.232;2023-06-22T09:05:13;20.77;;;19.27;;
21202;SDS011;10759;51.982;9.232;2023-06-22T09:07:41;22.77;;;21.27;;
21202;SDS011;10759;51.982;9.232;2023-06-22T09:10:09;24.85;;;23.05;;
21202;SDS011;10759;51.982;9.232;2023-06-22T09:12:39;19.90;;;18.50;;
21202;SDS011;10759;51.982;9.232;2023-06-22T09:15:07;23.90;;;22.25;;
21202;SDS011;10759;51.982;9.232;2023-06-22T09:17:41;21.98;;;20.45;;
21202;SDS011;10759;51.982;9.232;2023-06-22T09:20:10;22.10;;;20.58;;
21202;SDS011;10759;51.982;9.232;2023-06-22T09:22:38;22.02;;;20.52;;
21202;SDS011;10759;51.982;9.232;2023-06-22T09:25:06;22.05;;;20.30;;
21202;SDS011;10759;51.982;9.232;2023-06-22T09:27:35;21.92;;;20.33;;
21202;SDS011;10759;51.982;9.232;2023-06-22T09:30:05;21.70;;;20.20;;
21202;SDS011;10759;51.982;9.232;2023-06-22T09:32:33;21.60;;;20.08;;
21202;SDS011;10759;51.982;9.232;2023-06-22T09:35:04;21.77;;;20.13;;
21202;SDS011;10759;51.982;9.232;2023-06-22T09:37:33;21.02;;;19.52;;
21202;SDS011;10759;51.982;9.232;2023-06-22T09:40:01;20.95;;;19.35;;
21202;SDS011;10759;51.982;9.232;2023-06-22T09:44:58;21.85;;;19.98;;
21202;SDS011;10759;51.982;9.232;2023-06-22T09:47:29;20.63;;;18.88;;
21202;SDS011;10759;51.982;9.232;2023-06-22T09:49:57;20.30;;;18.98;;
21202;SDS011;10759;51.982;9.232;2023-06-22T09:52:26;19.58;;;18.15;;
21202;SDS011;10759;51.982;9.232;2023-06-22T09:55:12;19.10;;;17.75;;
21202;SDS011;10759;51.982;9.232;2023-06-22T09:57:41;19.50;;;18.20;;
21202;SDS011;10759;51.982;9.232;2023-06-22T10:00:10;19.70;;;18.02;;
21202;SDS011;10759;51.982;9.232;2023-06-22T10:02:41;17.58;;;16.42;;
21202;SDS011;10759;51.982;9.232;2023-06-22T10:05:09;18.63;;;16.92;;
21202;SDS011;10759;51.982;9.232;2023-06-22T10:07:38;18.42;;;17.17;;
21202;SDS011;10759;51.982;9.232;2023-06-22T10:10:09;15.60;;;14.60;;
21202;SDS011;10759;51.982;9.232;2023-06-22T10:12:40;17.73;;;16.05;;
21202;SDS011;10759;51.982;9.232;2023-06-22T10:15:10;14.75;;;13.57;;
21202;SDS011;10759;51.982;9.232;2023-06-22T10:17:40;15.35;;;14.13;;
21202;SDS011;10759;51.982;9.232;2023-06-22T10:20:08;15.13;;;13.98;;
21202;SDS011;10759;51.982;9.232;2023-06-22T10:22:39;15.70;;;14.38;;
21202;SDS011;10759;51.982;9.232;2023-06-22T10:25:08;14.35;;;13.35;;
21202;SDS011;10759;51.982;9.232;2023-06-22T10:27:36;13.73;;;12.68;;
21202;SDS011;10759;51.982;9.232;2023-06-22T10:32:34;15.27;;;14.23;;
21202;SDS011;10759;51.982;9.232;2023-06-22T10:35:05;13.23;;;12.38;;
21202;SDS011;10759;51.982;9.232;2023-06-22T10:37:33;16.33;;;15.27;;
21202;SDS011;10759;51.982;9.232;2023-06-22T10:40:01;15.45;;;14.15;;
21202;SDS011;10759;51.982;9.232;2023-06-22T10:42:30;17.90;;;16.60;;
21202;SDS011;10759;51.982;9.232;2023-06-22T10:44:58;15.60;;;14.52;;
21202;SDS011;10759;51.982;9.232;2023-06-22T10:47:26;15.57;;;14.48;;
21202;SDS011;10759;51.982;9.232;2023-06-22T10:49:54;14.90;;;13.80;;
21202;SDS011;10759;51.982;9.232;2023-06-22T10:52:23;15.02;;;13.73;;
21202;SDS011;10759;51.982;9.232;2023-06-22T10:54:51;14.63;;;13.52;;
21202;SDS011;10759;51.982;9.232;2023-06-22T10:57:21;14.13;;;13.18;;
21202;SDS011;10759;51.982;9.232;2023-06-22T10:59:49;13.02;;;12.10;;
21202;SDS011;10759;51.982;9.232;2023-06-22T11:02:17;15.50;;;14.07;;
21202;SDS011;10759;51.982;9.232;2023-06-22T11:04:45;15.43;;;14.23;;
21202;SDS011;10759;51.982;9.232;2023-06-22T11:07:15;14.75;;;13.65;;
21202;SDS011;10759;51.982;9.232;2023-06-22T11:09:44;14.98;;;13.98;;
21202;SDS011;10759;51.982;9.232;2023-06-22T11:12:12;14.90;;;13.73;;
21202;SDS011;10759;51.982;9.232;2023-06-22T11:14:40;14.43;;;13.27;;
21202;SDS011;10759;51.982;9.232;2023-06-22T11:17:08;15.23;;;14.13;;
21202;SDS011;10759;51.982;9.232;2023-06-22T11:19:36;14.68;;;13.73;;
21202;SDS011;10759;51.982;9.232;2023-06-22T11:22:04;15.30;;;14.20;;
21202;SDS011;10759;51.982;9.232;2023-06-22T11:24:33;14.93;;;13.82;;
21202;SDS011;10759;51.982;9.232;2023-06-22T11:27:02;14.82;;;13.52;;
21202;SDS011;10759;51.982;9.232;2023-06-22T11:29:31;15.10;;;13.98;;
21202;SDS011;10759;51.982;9.232;2023-06-22T11:32:04;15.38;;;14.25;;
21202;SDS011;10759;51.982;9.232;2023-06-22T11:34:33;14.68;;;13.48;;
21202;SDS011;10759;51.982;9.232;2023-06-22T11:37:01;15.15;;;14.10;;
21202;SDS011;10759;51.982;9.232;2023-06-22T11:39:30;15.10;;;13.90;;
21202;SDS011;10759;51.982;9.232;2023-06-22T11:42:09;15.35;;;13.82;;
21202;SDS011;10759;51.982;9.232;2023-06-22T11:44:38;15.02;;;13.95;;
21202;SDS011;10759;51.982;9.232;2023-06-22T11:47:06;16.10;;;14.73;;
21202;SDS011;10759;51.982;9.232;2023-06-22T11:49:34;14.95;;;13.85;;
21202;SDS011;10759;51.982;9.232;2023-06-22T11:52:02;14.20;;;13.00;;
21202;SDS011;10759;51.982;9.232;2023-06-22T11:54:30;15.52;;;14.52;;
21202;SDS011;10759;51.982;9.232;2023-06-22T11:56:58;15.80;;;14.70;;
21202;SDS011;10759;51.982;9.232;2023-06-22T11:59:28;15.20;;;14.05;;
21202;SDS011;10759;51.982;9.232;2023-06-22T12:01:56;15.88;;;14.63;;
21202;SDS011;10759;51.982;9.232;2023-06-22T12:04:24;17.13;;;15.70;;
21202;SDS011;10759;51.982;9.232;2023-06-22T12:06:53;14.52;;;13.52;;
21202;SDS011;10759;51.982;9.232;2023-06-22T12:09:21;15.63;;;14.52;;
21202;SDS011;10759;51.982;9.232;2023-06-22T12:11:49;14.93;;;13.93;;
21202;SDS011;10759;51.982;9.232;2023-06-22T12:14:17;16.73;;;15.52;;
21202;SDS011;10759;51.982;9.232;2023-06-22T12:16:46;15.68;;;14.57;;
21202;SDS011;10759;51.982;9.232;2023-06-22T12:19:14;15.65;;;14.65;;
21202;SDS011;10759;51.982;9.232;2023-06-22T12:21:42;14.32;;;13.43;;
21202;SDS011;10759;51.982;9.232;2023-06-22T12:26:40;16.27;;;14.88;;
21202;SDS011;10759;51.982;9.232;2023-06-22T12:29:08;15.73;;;14.68;;
21202;SDS011;10759;51.982;9.232;2023-06-22T12:31:36;14.57;;;13.45;;
21202;SDS011;10759;51.982;9.232;2023-06-22T12:34:06;13.85;;;12.85;;
21202;SDS011;10759;51.982;9.232;2023-06-22T12:36:34;14.88;;;13.80;;
21202;SDS011;10759;51.982;9.232;2023-06-22T12:39:02;15.15;;;13.95;;
21202;SDS011;10759;51.982;9.232;2023-06-22T12:41:30;13.27;;;12.38;;
21202;SDS011;10759;51.982;9.232;2023-06-22T12:43:58;14.13;;;13.13;;
21202;SDS011;10759;51.982;9.232;2023-06-22T12:46:26;14.38;;;13.27;;
21202;SDS011;10759;51.982;9.232;2023-06-22T12:48:54;13.55;;;12.32;;
21202;SDS011;10759;51.982;9.232;2023-06-22T12:51:24;12.88;;;11.98;;
21202;SDS011;10759;51.982;9.232;2023-06-22T12:53:51;13.20;;;12.13;;
21202;SDS011;10759;51.982;9.232;2023-06-22T12:56:20;14.07;;;13.07;;
21202;SDS011;10759;51.982;9.232;2023-06-22T12:58:48;14.40;;;13.13;;
21202;SDS011;10759;51.982;9.232;2023-06-22T13:01:16;13.45;;;12.43;;
21202;SDS011;10759;51.982;9.232;2023-06-22T13:03:44;14.55;;;13.52;;
21202;SDS011;10759;51.982;9.232;2023-06-22T13:06:13;14.35;;;13.27;;
21202;SDS011;10759;51.982;9.232;2023-06-22T13:08:42;16.05;;;14.77;;
21202;SDS011;10759;51.982;9.232;2023-06-22T13:11:30;15.65;;;14.57;;
21202;SDS011;10759;51.982;9.232;2023-06-22T13:13:58;15.27;;;14.18;;
21202;SDS011;10759;51.982;9.232;2023-06-22T13:16:25;17.52;;;16.42;;
21202;SDS011;10759;51.982;9.232;2023-06-22T13:18:54;18.35;;;16.95;;
21202;SDS011;10759;51.982;9.232;2023-06-22T13:21:22;19.63;;;18.00;;
21202;SDS011;10759;51.982;9.232;2023-06-22T13:23:51;17.60;;;16.30;;
21202;SDS011;10759;51.982;9.232;2023-06-22T13:26:20;20.38;;;18.70;;
21202;SDS011;10759;51.982;9.232;2023-06-22T13:28:48;21.77;;;20.17;;
21202;SDS011;10759;51.982;9.232;2023-06-22T13:31:16;22.45;;;20.85;;
21202;SDS011;10759;51.982;9.232;2023-06-22T13:33:44;22.63;;;20.80;;
21202;SDS011;10759;51.982;9.232;2023-06-22T13:36:14;22.92;;;21.23;;
21202;SDS011;10759;51.982;9.232;2023-06-22T13:38:43;25.23;;;23.23;;
21202;SDS011;10759;51.982;9.232;2023-06-22T13:41:13;26.20;;;23.75;;
21202;SDS011;10759;51.982;9.232;2023-06-22T13:43:40;26.63;;;24.48;;
21202;SDS011;10759;51.982;9.232;2023-06-22T13:46:08;27.67;;;25.38;;
21202;SDS011;10759;51.982;9.232;2023-06-22T13:48:37;30.08;;;27.52;;
21202;SDS011;10759;51.982;9.232;2023-06-22T13:51:04;29.90;;;27.35;;
21202;SDS011;10759;51.982;9.232;2023-06-22T13:53:33;31.88;;;29.25;;
21202;SDS011;10759;51.982;9.232;2023-06-22T13:56:01;32.38;;;29.77;;
21202;SDS011;10759;51.982;9.232;2023-06-22T13:58:30;31.27;;;29.05;;
21202;SDS011;10759;51.982;9.232;2023-06-22T14:00:58;30.98;;;28.42;;
21202;SDS011;10759;51.982;9.232;2023-06-22T14:03:26;32.53;;;29.83;;
21202;SDS011;10759;51.982;9.232;2023-06-22T14:05:54;30.90;;;28.60;;
21202;SDS011;10759;51.982;9.232;2023-06-22T14:08:24;32.58;;;30.08;;
21202;SDS011;10759;51.982;9.232;2023-06-22T14:10:55;30.67;;;28.27;;
21202;SDS011;10759;51.982;9.232;2023-06-22T14:13:23;32.38;;;29.88;;
21202;SDS011;10759;51.982;9.232;2023-06-22T14:15:52;31.52;;;29.08;;
21202;SDS011;10759;51.982;9.232;2023-06-22T14:18:20;30.67;;;28.15;;
21202;SDS011;10759;51.982;9.232;2023-06-22T14:20:49;29.83;;;27.52;;
21202;SDS011;10759;51.982;9.232;2023-06-22T14:23:17;30.77;;;28.58;;
21202;SDS011;10759;51.982;9.232;2023-06-22T14:25:45;31.83;;;29.42;;
21202;SDS011;10759;51.982;9.232;2023-06-22T14:28:13;34.00;;;31.30;;
21202;SDS011;10759;51.982;9.232;2023-06-22T14:30:42;35.03;;;32.27;;
21202;SDS011;10759;51.982;9.232;2023-06-22T14:33:12;35.47;;;32.67;;
21202;SDS011;10759;51.982;9.232;2023-06-22T14:35:40;33.78;;;31.08;;
21202;SDS011;10759;51.982;9.232;2023-06-22T14:38:08;36.90;;;33.80;;
21202;SDS011;10759;51.982;9.232;2023-06-22T14:40:36;36.88;;;33.47;;
21202;SDS011;10759;51.982;9.232;2023-06-22T14:43:24;35.42;;;32.30;;
21202;SDS011;10759;51.982;9.232;2023-06-22T14:45:52;33.58;;;31.05;;